Have a Safe July 4th! 

Flight Track Log - Related Links

Times and Time Zones

All times are in EDT time to prevent confusion due to time zone crossing. See the CTL311 flight status page for this flight to view local times or setup timezone preferences in your user account.

Time Position Orientation Groundspeed Altitude Reporting Facility
EDT Latitude Longitude Course Direction KTS MPH feet Rate Location/Type
Mon 06:33:42 PM 42.2033 -84.4947 213° Southwest 192 221 2,500  Level Chicago Center
Mon 06:34:44 PM 42.1542 -84.5339 211° Southwest 172 198 3,300 629 Climbing Chicago Center
Mon 06:35:46 PM 42.1122 -84.5694 212° Southwest 175 201 3,800 576 Climbing Chicago Center
Mon 06:36:49 PM 42.0703 -84.6028 211° Southwest 176 203 4,500 532 Climbing Chicago Center
Mon 06:37:50 PM 42.0283 -84.6339 209° Southwest 174 200 4,900 581 Climbing Chicago Center
Mon 06:38:00 PM 41.9974 -84.6451 213° Southwest  Level FlightAware Approximate
Mon 06:38:53 PM 41.9839 -84.6689 210° Southwest 179 206 5,700  Level Chicago Center
Mon 06:39:00 PM 41.9564 -84.6803 213° Southwest  Level FlightAware Approximate
Mon 06:39:55 PM 41.9436 -84.7100 217° Southwest 181 208 5,900  Level Chicago Center
Mon 06:40:57 PM 41.8906 -84.7544 212° Southwest 186 214 6,000 97 Climbing Chicago Center
Mon 06:41:59 PM 41.8447 -84.7867 208° Southwest 187 215 6,100  Climbing Chicago Center
Mon 06:43:01 PM 41.7981 -84.8178 206° Southwest 186 214 6,000 -48 Descending Chicago Center
Mon 06:44:03 PM 41.7522 -84.8514 209° Southwest 187 215 6,000  Level Chicago Center
Mon 06:45:05 PM 41.7089 -84.8878 212° Southwest 185 213 6,000  Level Chicago Center
Mon 06:46:07 PM 41.6647 -84.9256 213° Southwest 187 215 6,000  Level Chicago Center
Mon 06:47:09 PM 41.6100 -84.9683 210° Southwest 188 216 6,000 48 Level Chicago Center
Mon 06:48:11 PM 41.5642 -85.0036 210° Southwest 189 217 6,100 48 Climbing Chicago Center
Mon 06:49:13 PM 41.5203 -85.0408 212° Southwest 188 216 6,100  Level Chicago Center
Mon 06:50:15 PM 41.4753 -85.0775 211° Southwest 188 216 6,100  Level Chicago Center
Mon 06:51:17 PM 41.4297 -85.1122 210° Southwest 188 216 6,100  Level Chicago Center
Mon 06:52:19 PM 41.3842 -85.1475 210° Southwest 188 216 6,100  Level Chicago Center
Mon 06:53:21 PM 41.3389 -85.1814 209° Southwest 187 215 6,100  Level Chicago Center
Mon 06:54:23 PM 41.2853 -85.2219 210° Southwest 186 214 6,100  Level Chicago Center
Mon 06:55:25 PM 41.2414 -85.2594 213° Southwest 186 214 6,100 -48 Level Chicago Center
Mon 06:56:27 PM 41.1972 -85.2967 212° Southwest 186 214 6,000  Descending Chicago Center
Mon 06:57:29 PM 41.1525 -85.3281 208° Southwest 185 213 6,100 48 Climbing Chicago Center
Mon 06:58:31 PM 41.1075 -85.3600 208° Southwest 184 212 6,100  Level Chicago Center
Mon 06:59:33 PM 41.0642 -85.3939 211° Southwest 182 209 6,100  Level Chicago Center
Mon 07:00:35 PM 41.0125 -85.4331 210° Southwest 178 205 6,100  Level Chicago Center
Mon 07:01:37 PM 40.9686 -85.4661 210° Southwest 179 206 6,100  Level Chicago Center
Mon 07:02:39 PM 40.9256 -85.4997 211° Southwest 179 206 6,100 -48 Level Chicago Center
Mon 07:03:41 PM 40.8822 -85.5325 210° Southwest 179 206 6,000 -60 Descending Chicago Center
Mon 07:04:19 PM 40.8525 -85.5614 216° Southwest 183 211 6,000  Level Chicago Center
Mon 07:05:25 PM 40.8053 -85.6033 214° Southwest 181 208 6,000 -47 Level Chicago Center
Mon 07:06:26 PM 40.7628 -85.6397 213° Southwest 188 216 5,900  Descending Chicago Center
Mon 07:07:27 PM 40.7158 -85.6786 212° Southwest 185 213 6,000 -149 Climbing Chicago Center
Mon 07:08:27 PM 40.6731 -85.7119 211° Southwest 187 215 5,600 -446 Descending Chicago Center
Mon 07:09:28 PM 40.6219 -85.7506 210° Southwest 199 229 5,100 -298 Descending Chicago Center
Mon 07:10:28 PM 40.5731 -85.7839 207° Southwest 194 223 5,000 -50 Descending Chicago Center
Mon 07:11:29 PM 40.5303 -85.8172 211° Southwest 185 213 5,000  Level Chicago Center
Mon 07:12:30 PM 40.4814 -85.8475 205° Southwest 185 213 5,000 40 Level Chicago Center
Mon 07:14:00 PM 40.4161 -85.8908 207° Southwest 187 215 5,100  Climbing Chicago Center
Mon 07:15:02 PM 40.3719 -85.9231 209° Southwest 184 212 5,000 -48 Descending Chicago Center
Mon 07:16:04 PM 40.3267 -85.9578 210° Southwest 186 214 5,000  Level Chicago Center
Mon 07:17:06 PM 40.2825 -85.9889 208° Southwest 183 211 5,000  Level Chicago Center
Mon 07:18:08 PM 40.2294 -86.0308 211° Southwest 184 212 5,000 -97 Level Chicago Center
Mon 07:19:10 PM 40.1847 -86.0614 208° Southwest 182 209 4,800 -484 Descending Chicago Center
Mon 07:20:12 PM 40.1364 -86.0942 207° Southwest 188 216 4,000 -500 Descending Chicago Center
Mon 07:20:46 PM 40.1050 -86.1128 204° Southwest 194 223 4,000 -316 Level Indianapolis Center
Mon 07:21:47 PM 40.0564 -86.1425 205° Southwest 194 223 3,500 -439 Descending Indianapolis Center
Mon 07:22:49 PM 40.0122 -86.1714 207° Southwest 195 224 3,100 -387 Descending Indianapolis Center

Login

Don't have an account? Register now (free) for customized features, flight alerts, and more!